sensor_id;sensor_type;location;lat;lon;timestamp;pressure;altitude;pressure_sealevel;temperature;humidity
54038;BME280;39954;48.844;9.726;2022-11-23T03:31:40;94825.63;;;-0.38;100.00
54038;BME280;39954;48.844;9.726;2022-11-23T03:32:51;94829.91;;;-0.38;100.00
54038;BME280;39954;48.844;9.726;2022-11-23T03:33:58;94819.72;;;-0.40;100.00
54038;BME280;39954;48.844;9.726;2022-11-23T03:35:01;94824.91;;;-0.41;100.00
54038;BME280;39954;48.844;9.726;2022-11-23T03:36:16;94822.38;;;-0.43;100.00
54038;BME280;39954;48.844;9.726;2022-11-23T03:37:19;94820.72;;;-0.44;100.00
54038;BME280;39954;48.844;9.726;2022-11-23T03:38:28;94817.28;;;-0.43;100.00
54038;BME280;39954;48.844;9.726;2022-11-23T03:39:39;94815.72;;;-0.47;100.00
54038;BME280;39954;48.844;9.726;2022-11-23T03:40:48;94816.56;;;-0.47;100.00
54038;BME280;39954;48.844;9.726;2022-11-23T03:41:53;94819.94;;;-0.46;100.00
54038;BME280;39954;48.844;9.726;2022-11-23T03:43:02;94825.03;;;-0.46;100.00
54038;BME280;39954;48.844;9.726;2022-11-23T03:44:07;94815.72;;;-0.47;100.00
54038;BME280;39954;48.844;9.726;2022-11-23T03:45:17;94817.47;;;-0.48;100.00
54038;BME280;39954;48.844;9.726;2022-11-23T03:46:24;94814.13;;;-0.50;100.00
54038;BME280;39954;48.844;9.726;2022-11-23T03:47:35;94816.66;;;-0.50;100.00
54038;BME280;39954;48.844;9.726;2022-11-23T03:48:43;94819.25;;;-0.51;100.00
54038;BME280;39954;48.844;9.726;2022-11-23T03:49:49;94820.94;;;-0.50;100.00
54038;BME280;39954;48.844;9.726;2022-11-23T03:50:56;94826.81;;;-0.48;100.00
54038;BME280;39954;48.844;9.726;2022-11-23T03:52:08;94822.50;;;-0.46;100.00
54038;BME280;39954;48.844;9.726;2022-11-23T03:53:15;94819.91;;;-0.44;100.00
54038;BME280;39954;48.844;9.726;2022-11-23T03:54:26;94814.63;;;-0.40;100.00
54038;BME280;39954;48.844;9.726;2022-11-23T03:55:33;94810.31;;;-0.38;100.00
54038;BME280;39954;48.844;9.726;2022-11-23T03:56:42;94811.97;;;-0.37;100.00
54038;BME280;39954;48.844;9.726;2022-11-23T03:57:47;94813.56;;;-0.34;100.00
54038;BME280;39954;48.844;9.726;2022-11-23T03:58:52;94816.97;;;-0.34;100.00
54038;BME280;39954;48.844;9.726;2022-11-23T04:00:01;94813.47;;;-0.31;100.00
54038;BME280;39954;48.844;9.726;2022-11-23T04:01:13;94814.31;;;-0.31;100.00
54038;BME280;39954;48.844;9.726;2022-11-23T04:02:22;94817.63;;;-0.29;100.00
54038;BME280;39954;48.844;9.726;2022-11-23T04:03:39;94818.44;;;-0.27;100.00
54038;BME280;39954;48.844;9.726;2022-11-23T04:04:50;94814.22;;;-0.28;100.00
54038;BME280;39954;48.844;9.726;2022-11-23T04:05:58;94815.03;;;-0.27;100.00
54038;BME280;39954;48.844;9.726;2022-11-23T04:07:09;94810.72;;;-0.25;100.00
54038;BME280;39954;48.844;9.726;2022-11-23T04:08:16;94818.28;;;-0.22;100.00
54038;BME280;39954;48.844;9.726;2022-11-23T04:09:19;94814.84;;;-0.23;100.00
54038;BME280;39954;48.844;9.726;2022-11-23T04:10:23;94813.88;;;-0.18;100.00
54038;BME280;39954;48.844;9.726;2022-11-23T04:11:29;94815.53;;;-0.17;100.00
54038;BME280;39954;48.844;9.726;2022-11-23T04:12:33;94826.53;;;-0.15;100.00
54038;BME280;39954;48.844;9.726;2022-11-23T04:13:39;94817.97;;;-0.14;100.00
54038;BME280;39954;48.844;9.726;2022-11-23T04:14:54;94822.34;;;-0.16;100.00
54038;BME280;39954;48.844;9.726;2022-11-23T04:16:07;94819.78;;;-0.16;100.00
54038;BME280;39954;48.844;9.726;2022-11-23T04:17:12;94813.81;;;-0.17;100.00
54038;BME280;39954;48.844;9.726;2022-11-23T04:18:27;94818.09;;;-0.17;100.00
54038;BME280;39954;48.844;9.726;2022-11-23T04:19:36;94819.78;;;-0.16;100.00
54038;BME280;39954;48.844;9.726;2022-11-23T04:20:43;94814.66;;;-0.16;100.00
54038;BME280;39954;48.844;9.726;2022-11-23T04:21:50;94818.09;;;-0.17;100.00
54038;BME280;39954;48.844;9.726;2022-11-23T04:22:55;94818.09;;;-0.17;100.00
54038;BME280;39954;48.844;9.726;2022-11-23T04:24:01;94814.72;;;-0.18;100.00
54038;BME280;39954;48.844;9.726;2022-11-23T04:25:06;94813.09;;;-0.20;100.00
54038;BME280;39954;48.844;9.726;2022-11-23T04:26:11;94815.72;;;-0.22;100.00
54038;BME280;39954;48.844;9.726;2022-11-23T04:27:20;94818.31;;;-0.24;100.00
54038;BME280;39954;48.844;9.726;2022-11-23T04:28:25;94808.22;;;-0.27;100.00
54038;BME280;39954;48.844;9.726;2022-11-23T04:29:31;94820.19;;;-0.29;100.00
54038;BME280;39954;48.844;9.726;2022-11-23T04:30:48;94812.53;;;-0.29;100.00
54038;BME280;39954;48.844;9.726;2022-11-23T04:31:56;94816.88;;;-0.31;100.00
54038;BME280;39954;48.844;9.726;2022-11-23T04:33:02;94816.88;;;-0.31;100.00
54038;BME280;39954;48.844;9.726;2022-11-23T04:34:19;94813.53;;;-0.33;100.00
54038;BME280;39954;48.844;9.726;2022-11-23T04:35:28;94812.72;;;-0.33;100.00
54038;BME280;39954;48.844;9.726;2022-11-23T04:36:36;94816.97;;;-0.34;100.00
54038;BME280;39954;48.844;9.726;2022-11-23T04:37:43;94811.84;;;-0.34;100.00
54038;BME280;39954;48.844;9.726;2022-11-23T04:38:48;94815.19;;;-0.32;100.00
54038;BME280;39954;48.844;9.726;2022-11-23T04:39:53;94818.53;;;-0.30;100.00
54038;BME280;39954;48.844;9.726;2022-11-23T04:41:06;94817.63;;;-0.29;100.00
54038;BME280;39954;48.844;9.726;2022-11-23T04:42:11;94816.75;;;-0.28;100.00
54038;BME280;39954;48.844;9.726;2022-11-23T04:43:14;94811.59;;;-0.26;100.00
54038;BME280;39954;48.844;9.726;2022-11-23T04:44:25;94817.47;;;-0.24;100.00
54038;BME280;39954;48.844;9.726;2022-11-23T04:45:37;94819.88;;;-0.19;100.00
54038;BME280;39954;48.844;9.726;2022-11-23T04:46:42;94810.44;;;-0.17;100.00
54038;BME280;39954;48.844;9.726;2022-11-23T04:47:46;94812.03;;;-0.15;100.00
54038;BME280;39954;48.844;9.726;2022-11-23T04:48:51;94811.91;;;-0.10;100.00
54038;BME280;39954;48.844;9.726;2022-11-23T04:50:05;94808.44;;;-0.09;100.00
54038;BME280;39954;48.844;9.726;2022-11-23T04:51:13;94810.88;;;-0.06;100.00
54038;BME280;39954;48.844;9.726;2022-11-23T04:52:21;94801.44;;;-0.04;100.00
54038;BME280;39954;48.844;9.726;2022-11-23T04:53:29;94803.91;;;-0.01;100.00
54038;BME280;39954;48.844;9.726;2022-11-23T04:54:34;94807.22;;;0.01;100.00
54038;BME280;39954;48.844;9.726;2022-11-23T04:55:36;94807.13;;;0.04;100.00
54038;BME280;39954;48.844;9.726;2022-11-23T04:56:47;94804.44;;;0.07;100.00
54038;BME280;39954;48.844;9.726;2022-11-23T04:57:54;94807.78;;;0.09;100.00
54038;BME280;39954;48.844;9.726;2022-11-23T04:59:00;94809.41;;;0.12;100.00
54038;BME280;39954;48.844;9.726;2022-11-23T05:00:08;94804.22;;;0.13;100.00
54038;BME280;39954;48.844;9.726;2022-11-23T05:01:22;94812.69;;;0.15;100.00
54038;BME280;39954;48.844;9.726;2022-11-23T05:02:30;94801.50;;;0.18;100.00
54038;BME280;39954;48.844;9.726;2022-11-23T05:03:37;94813.34;;;0.20;100.00
54038;BME280;39954;48.844;9.726;2022-11-23T05:04:49;94798.72;;;0.24;100.00
54038;BME280;39954;48.844;9.726;2022-11-23T05:05:57;94802.91;;;0.27;100.00
54038;BME280;39954;48.844;9.726;2022-11-23T05:07:12;94811.34;;;0.29;100.00
54038;BME280;39954;48.844;9.726;2022-11-23T05:08:17;94806.13;;;0.32;100.00
54038;BME280;39954;48.844;9.726;2022-11-23T05:09:21;94810.31;;;0.33;100.00
54038;BME280;39954;48.844;9.726;2022-11-23T05:10:26;94799.22;;;0.34;100.00
54038;BME280;39954;48.844;9.726;2022-11-23T05:11:31;94799.97;;;0.36;100.00
54038;BME280;39954;48.844;9.726;2022-11-23T05:12:33;94802.41;;;0.39;100.00
54038;BME280;39954;48.844;9.726;2022-11-23T05:13:47;94799.81;;;0.40;100.00
54038;BME280;39954;48.844;9.726;2022-11-23T05:14:57;94803.09;;;0.44;100.00
54038;BME280;39954;48.844;9.726;2022-11-23T05:16:06;94800.41;;;0.47;100.00
54038;BME280;39954;48.844;9.726;2022-11-23T05:17:11;94797.00;;;0.48;100.00
54038;BME280;39954;48.844;9.726;2022-11-23T05:18:19;94791.75;;;0.51;100.00
54038;BME280;39954;48.844;9.726;2022-11-23T05:19:30;94796.75;;;0.54;100.00
54038;BME280;39954;48.844;9.726;2022-11-23T05:20:35;94788.19;;;0.55;100.00
54038;BME280;39954;48.844;9.726;2022-11-23T05:21:40;94788.13;;;0.57;100.00
54038;BME280;39954;48.844;9.726;2022-11-23T05:22:47;94782.94;;;0.58;100.00
54038;BME280;39954;48.844;9.726;2022-11-23T05:23:53;94786.28;;;0.60;100.00
54038;BME280;39954;48.844;9.726;2022-11-23T05:24:59;94785.38;;;0.61;100.00
54038;BME280;39954;48.844;9.726;2022-11-23T05:26:04;94785.34;;;0.63;100.00
54038;BME280;39954;48.844;9.726;2022-11-23T05:27:09;94788.78;;;0.62;100.00
54038;BME280;39954;48.844;9.726;2022-11-23T05:28:15;94785.34;;;0.63;100.00
54038;BME280;39954;48.844;9.726;2022-11-23T05:29:41;94790.44;;;0.63;100.00
54038;BME280;39954;48.844;9.726;2022-11-23T05:30:47;94789.41;;;0.67;100.00
54038;BME280;39954;48.844;9.726;2022-11-23T05:31:53;94786.09;;;0.65;100.00
54038;BME280;39954;48.844;9.726;2022-11-23T05:33:00;94780.09;;;0.66;100.00
54038;BME280;39954;48.844;9.726;2022-11-23T05:34:07;94790.41;;;0.64;100.00
54038;BME280;39954;48.844;9.726;2022-11-23T05:35:21;94784.38;;;0.65;100.00
54038;BME280;39954;48.844;9.726;2022-11-23T05:36:29;94789.50;;;0.65;100.00
54038;BME280;39954;48.844;9.726;2022-11-23T05:37:43;94784.38;;;0.65;100.00
54038;BME280;39954;48.844;9.726;2022-11-23T05:38:51;94782.72;;;0.64;100.00
54038;BME280;39954;48.844;9.726;2022-11-23T05:40:00;94781.88;;;0.64;100.00
54038;BME280;39954;48.844;9.726;2022-11-23T05:41:02;94779.28;;;0.65;100.00
54038;BME280;39954;48.844;9.726;2022-11-23T05:42:07;94779.28;;;0.65;100.00
54038;BME280;39954;48.844;9.726;2022-11-23T05:43:13;94782.72;;;0.64;100.00
54038;BME280;39954;48.844;9.726;2022-11-23T05:44:18;94781.81;;;0.65;100.00
54038;BME280;39954;48.844;9.726;2022-11-23T05:45:20;94775.06;;;0.64;100.00
54038;BME280;39954;48.844;9.726;2022-11-23T05:46:36;94769.94;;;0.64;100.00
54038;BME280;39954;48.844;9.726;2022-11-23T05:47:41;94771.72;;;0.62;100.00
54038;BME280;39954;48.844;9.726;2022-11-23T05:48:45;94773.38;;;0.63;100.00
54038;BME280;39954;48.844;9.726;2022-11-23T05:50:01;94769.09;;;0.64;100.00
54038;BME280;39954;48.844;9.726;2022-11-23T05:51:07;94777.66;;;0.63;100.00
54038;BME280;39954;48.844;9.726;2022-11-23T05:52:17;94768.25;;;0.63;100.00
54038;BME280;39954;48.844;9.726;2022-11-23T05:53:22;94768.34;;;0.62;100.00
54038;BME280;39954;48.844;9.726;2022-11-23T05:54:32;94770.03;;;0.61;100.00
54038;BME280;39954;48.844;9.726;2022-11-23T05:55:37;94770.13;;;0.60;100.00
54038;BME280;39954;48.844;9.726;2022-11-23T05:56:44;94773.56;;;0.59;100.00
54038;BME280;39954;48.844;9.726;2022-11-23T05:57:51;94773.66;;;0.56;100.00
54038;BME280;39954;48.844;9.726;2022-11-23T05:58:56;94781.41;;;0.54;100.00
54038;BME280;39954;48.844;9.726;2022-11-23T06:00:09;94778.97;;;0.51;100.00
54038;BME280;39954;48.844;9.726;2022-11-23T06:01:38;94780.88;;;0.46;100.00
54038;BME280;39954;48.844;9.726;2022-11-23T06:02:43;94786.88;;;0.45;100.00
54038;BME280;39954;48.844;9.726;2022-11-23T06:03:48;94776.75;;;0.42;100.00
54038;BME280;39954;48.844;9.726;2022-11-23T06:04:57;94783.66;;;0.40;100.00
54038;BME280;39954;48.844;9.726;2022-11-23T06:06:01;94783.66;;;0.40;100.00
54038;BME280;39954;48.844;9.726;2022-11-23T06:07:10;94790.44;;;0.41;100.00
54038;BME280;39954;48.844;9.726;2022-11-23T06:08:24;94785.44;;;0.38;100.00
54038;BME280;39954;48.844;9.726;2022-11-23T06:09:33;94789.72;;;0.37;100.00
54038;BME280;39954;48.844;9.726;2022-11-23T06:10:46;94785.56;;;0.35;100.00
54038;BME280;39954;48.844;9.726;2022-11-23T06:12:05;94783.78;;;0.37;100.00
54038;BME280;39954;48.844;9.726;2022-11-23T06:13:12;94789.00;;;0.34;100.00
54038;BME280;39954;48.844;9.726;2022-11-23T06:14:18;94786.50;;;0.32;100.00
54038;BME280;39954;48.844;9.726;2022-11-23T06:15:23;94781.50;;;0.29;100.00
54038;BME280;39954;48.844;9.726;2022-11-23T06:16:31;94780.72;;;0.27;100.00
54038;BME280;39954;48.844;9.726;2022-11-23T06:17:37;94784.19;;;0.26;100.00
54038;BME280;39954;48.844;9.726;2022-11-23T06:18:42;94787.56;;;0.27;100.00
54038;BME280;39954;48.844;9.726;2022-11-23T06:19:44;94779.94;;;0.25;100.00
54038;BME280;39954;48.844;9.726;2022-11-23T06:20:49;94787.56;;;0.27;100.00
54038;BME280;39954;48.844;9.726;2022-11-23T06:21:54;94787.56;;;0.27;100.00
54038;BME280;39954;48.844;9.726;2022-11-23T06:22:59;94797.06;;;0.23;100.00
54038;BME280;39954;48.844;9.726;2022-11-23T06:24:02;94794.44;;;0.25;100.00
54038;BME280;39954;48.844;9.726;2022-11-23T06:25:09;94799.63;;;0.23;100.00
54038;BME280;39954;48.844;9.726;2022-11-23T06:26:14;94792.91;;;0.20;100.00
54038;BME280;39954;48.844;9.726;2022-11-23T06:27:19;94788.75;;;0.18;100.00
54038;BME280;39954;48.844;9.726;2022-11-23T06:28:26;94797.31;;;0.17;100.00
54038;BME280;39954;48.844;9.726;2022-11-23T06:29:39;94787.16;;;0.14;100.00
54038;BME280;39954;48.844;9.726;2022-11-23T06:30:45;94793.25;;;0.11;100.00
54038;BME280;39954;48.844;9.726;2022-11-23T06:31:47;94791.69;;;0.07;100.00
54038;BME280;39954;48.844;9.726;2022-11-23T06:32:52;94787.59;;;0.03;100.00
54038;BME280;39954;48.844;9.726;2022-11-23T06:33:57;94795.38;;;0.00;100.00
54038;BME280;39954;48.844;9.726;2022-11-23T06:35:02;94797.97;;;-0.02;100.00
54038;BME280;39954;48.844;9.726;2022-11-23T06:36:05;94792.13;;;-0.05;100.00
54038;BME280;39954;48.844;9.726;2022-11-23T06:37:13;94795.75;;;-0.11;100.00
54038;BME280;39954;48.844;9.726;2022-11-23T06:38:23;94795.00;;;-0.14;100.00
54038;BME280;39954;48.844;9.726;2022-11-23T06:39:28;94802.00;;;-0.19;100.00
54038;BME280;39954;48.844;9.726;2022-11-23T06:40:36;94797.97;;;-0.25;100.00
54038;BME280;39954;48.844;9.726;2022-11-23T06:41:40;94798.00;;;-0.27;100.00
54038;BME280;39954;48.844;9.726;2022-11-23T06:42:43;94794.75;;;-0.32;100.00
54038;BME280;39954;48.844;9.726;2022-11-23T06:43:48;94804.25;;;-0.35;100.00
54038;BME280;39954;48.844;9.726;2022-11-23T06:44:52;94796.75;;;-0.40;100.00
54038;BME280;39954;48.844;9.726;2022-11-23T06:45:57;94802.75;;;-0.41;100.00
54038;BME280;39954;48.844;9.726;2022-11-23T06:47:02;94803.69;;;-0.43;100.00
54038;BME280;39954;48.844;9.726;2022-11-23T06:48:10;94802.97;;;-0.47;100.00
54038;BME280;39954;48.844;9.726;2022-11-23T06:49:12;94805.63;;;-0.50;100.00
54038;BME280;39954;48.844;9.726;2022-11-23T06:50:17;94809.06;;;-0.51;100.00
54038;BME280;39954;48.844;9.726;2022-11-23T06:51:20;94806.56;;;-0.53;100.00
54038;BME280;39954;48.844;9.726;2022-11-23T06:52:26;94809.16;;;-0.54;100.00
54038;BME280;39954;48.844;9.726;2022-11-23T06:53:28;94816.72;;;-0.51;100.00
54038;BME280;39954;48.844;9.726;2022-11-23T06:54:35;94809.16;;;-0.54;100.00
54038;BME280;39954;48.844;9.726;2022-11-23T06:55:41;94811.78;;;-0.56;100.00
54038;BME280;39954;48.844;9.726;2022-11-23T06:56:47;94812.66;;;-0.57;100.00
54038;BME280;39954;48.844;9.726;2022-11-23T06:57:50;94818.69;;;-0.59;100.00
54038;BME280;39954;48.844;9.726;2022-11-23T06:58:57;94817.91;;;-0.61;100.00
54038;BME280;39954;48.844;9.726;2022-11-23T07:00:03;94820.47;;;-0.61;100.00
54038;BME280;39954;48.844;9.726;2022-11-23T07:01:09;94813.75;;;-0.64;100.00
54038;BME280;39954;48.844;9.726;2022-11-23T07:02:14;94824.88;;;-0.66;100.00
54038;BME280;39954;48.844;9.726;2022-11-23T07:03:18;94819.88;;;-0.70;100.00
54038;BME280;39954;48.844;9.726;2022-11-23T07:04:31;94820.00;;;-0.73;100.00
54038;BME280;39954;48.844;9.726;2022-11-23T07:05:33;94815.81;;;-0.75;100.00
54038;BME280;39954;48.844;9.726;2022-11-23T07:06:39;94820.97;;;-0.77;100.00
54038;BME280;39954;48.844;9.726;2022-11-23T07:07:47;94827.78;;;-0.77;100.00
54038;BME280;39954;48.844;9.726;2022-11-23T07:08:53;94824.50;;;-0.81;100.00
54038;BME280;39954;48.844;9.726;2022-11-23T07:09:58;94831.38;;;-0.83;100.00
54038;BME280;39954;48.844;9.726;2022-11-23T07:11:10;94828.81;;;-0.83;100.00
54038;BME280;39954;48.844;9.726;2022-11-23T07:12:18;94829.72;;;-0.84;100.00
54038;BME280;39954;48.844;9.726;2022-11-23T07:13:22;94839.13;;;-0.86;100.00
54038;BME280;39954;48.844;9.726;2022-11-23T07:14:27;94829.88;;;-0.90;100.00
54038;BME280;39954;48.844;9.726;2022-11-23T07:15:31;94835.88;;;-0.91;100.00
54038;BME280;39954;48.844;9.726;2022-11-23T07:16:36;94837.53;;;-0.90;100.00
54038;BME280;39954;48.844;9.726;2022-11-23T07:17:39;94833.38;;;-0.93;100.00
54038;BME280;39954;48.844;9.726;2022-11-23T07:18:45;94836.72;;;-0.91;100.00
54038;BME280;39954;48.844;9.726;2022-11-23T07:19:47;94838.44;;;-0.91;100.00
54038;BME280;39954;48.844;9.726;2022-11-23T07:20:52;94842.75;;;-0.93;100.00
54038;BME280;39954;48.844;9.726;2022-11-23T07:21:54;94837.66;;;-0.93;100.00
54038;BME280;39954;48.844;9.726;2022-11-23T07:22:59;94839.34;;;-0.92;100.00
54038;BME280;39954;48.844;9.726;2022-11-23T07:24:02;94836.81;;;-0.94;100.00
54038;BME280;39954;48.844;9.726;2022-11-23T07:25:07;94837.75;;;-0.96;100.00
54038;BME280;39954;48.844;9.726;2022-11-23T07:26:17;94841.09;;;-0.94;100.00
54038;BME280;39954;48.844;9.726;2022-11-23T07:27:22;94841.91;;;-0.94;100.00
54038;BME280;39954;48.844;9.726;2022-11-23T07:28:26;94841.13;;;-0.96;100.00
54038;BME280;39954;48.844;9.726;2022-11-23T07:29:32;94847.09;;;-0.95;100.00
54038;BME280;39954;48.844;9.726;2022-11-23T07:30:34;94841.09;;;-0.94;100.00
54038;BME280;39954;48.844;9.726;2022-11-23T07:31:53;94841.09;;;-0.94;100.00
54038;BME280;39954;48.844;9.726;2022-11-23T07:32:58;94841.91;;;-0.94;100.00
54038;BME280;39954;48.844;9.726;2022-11-23T07:34:03;94845.25;;;-0.92;100.00
54038;BME280;39954;48.844;9.726;2022-11-23T07:35:06;94841.78;;;-0.89;100.00
54038;BME280;39954;48.844;9.726;2022-11-23T07:36:12;94842.53;;;-0.87;100.00
54038;BME280;39954;48.844;9.726;2022-11-23T07:37:27;94830.53;;;-0.83;100.00
54038;BME280;39954;48.844;9.726;2022-11-23T07:38:29;94833.81;;;-0.80;100.00
54038;BME280;39954;48.844;9.726;2022-11-23T07:39:35;94839.72;;;-0.78;100.00
54038;BME280;39954;48.844;9.726;2022-11-23T07:40:57;94831.13;;;-0.75;100.00
54038;BME280;39954;48.844;9.726;2022-11-23T07:42:06;94836.13;;;-0.72;100.00
54038;BME280;39954;48.844;9.726;2022-11-23T07:43:29;94841.13;;;-0.69;100.00
54038;BME280;39954;48.844;9.726;2022-11-23T07:44:34;94837.69;;;-0.68;100.00
54038;BME280;39954;48.844;9.726;2022-11-23T07:45:36;94842.69;;;-0.65;100.00
54038;BME280;39954;48.844;9.726;2022-11-23T07:46:44;94840.91;;;-0.63;100.00
54038;BME280;39954;48.844;9.726;2022-11-23T07:47:56;94833.16;;;-0.60;100.00
54038;BME280;39954;48.844;9.726;2022-11-23T07:49:01;94838.16;;;-0.57;100.00
54038;BME280;39954;48.844;9.726;2022-11-23T07:50:07;94834.69;;;-0.54;100.00
54038;BME280;39954;48.844;9.726;2022-11-23T07:51:10;94833.69;;;-0.50;100.00
54038;BME280;39954;48.844;9.726;2022-11-23T07:52:19;94831.91;;;-0.48;100.00
54038;BME280;39954;48.844;9.726;2022-11-23T07:53:24;94836.91;;;-0.45;100.00
54038;BME280;39954;48.844;9.726;2022-11-23T07:54:29;94835.94;;;-0.41;100.00
54038;BME280;39954;48.844;9.726;2022-11-23T07:55:34;94835.81;;;-0.38;100.00
54038;BME280;39954;48.844;9.726;2022-11-23T07:56:38;94839.06;;;-0.33;100.00
54038;BME280;39954;48.844;9.726;2022-11-23T07:57:46;94833.84;;;-0.30;100.00
54038;BME280;39954;48.844;9.726;2022-11-23T07:58:51;94838.75;;;-0.24;100.00
54038;BME280;39954;48.844;9.726;2022-11-23T07:59:57;94841.06;;;-0.17;100.00
54038;BME280;39954;48.844;9.726;2022-11-23T08:00:59;94836.72;;;-0.14;100.00
54038;BME280;39954;48.844;9.726;2022-11-23T08:02:08;94836.53;;;-0.09;100.00
54038;BME280;39954;48.844;9.726;2022-11-23T08:03:13;94837.94;;;-0.01;100.00
54038;BME280;39954;48.844;9.726;2022-11-23T08:04:29;94838.56;;;0.06;100.00
54038;BME280;39954;48.844;9.726;2022-11-23T08:05:35;94830.66;;;0.12;100.00
54038;BME280;39954;48.844;9.726;2022-11-23T08:06:41;94828.78;;;0.17;100.00
54038;BME280;39954;48.844;9.726;2022-11-23T08:07:47;94832.78;;;0.25;100.00
54038;BME280;39954;48.844;9.726;2022-11-23T08:08:54;94828.22;;;0.33;100.00
54038;BME280;39954;48.844;9.726;2022-11-23T08:10:02;94828.50;;;0.49;100.00
54038;BME280;39954;48.844;9.726;2022-11-23T08:11:10;94824.34;;;0.68;100.00
54038;BME280;39954;48.844;9.726;2022-11-23T08:12:19;94822.88;;;0.84;100.00
54038;BME280;39954;48.844;9.726;2022-11-23T08:13:27;94819.78;;;1.19;100.00
54038;BME280;39954;48.844;9.726;2022-11-23T08:14:36;94821.50;;;1.61;100.00
54038;BME280;39954;48.844;9.726;2022-11-23T08:15:47;94825.91;;;2.17;100.00
54038;BME280;39954;48.844;9.726;2022-11-23T08:16:56;94822.59;;;2.53;100.00
54038;BME280;39954;48.844;9.726;2022-11-23T08:18:00;94820.38;;;2.64;100.00
54038;BME280;39954;48.844;9.726;2022-11-23T08:19:09;94817.56;;;2.87;100.00
54038;BME280;39954;48.844;9.726;2022-11-23T08:20:18;94819.44;;;3.03;100.00
54038;BME280;39954;48.844;9.726;2022-11-23T08:21:26;94821.84;;;3.06;100.00
54038;BME280;39954;48.844;9.726;2022-11-23T08:22:46;94820.56;;;3.14;100.00
54038;BME280;39954;48.844;9.726;2022-11-23T08:23:53;94815.81;;;3.24;100.00
54038;BME280;39954;48.844;9.726;2022-11-23T08:24:58;94817.72;;;3.38;100.00
54038;BME280;39954;48.844;9.726;2022-11-23T08:26:03;94820.69;;;3.48;100.00
54038;BME280;39954;48.844;9.726;2022-11-23T08:27:15;94816.28;;;3.50;100.00
54038;BME280;39954;48.844;9.726;2022-11-23T08:28:21;94817.34;;;3.63;100.00
54038;BME280;39954;48.844;9.726;2022-11-23T08:29:31;94816.31;;;4.00;100.00
54038;BME280;39954;48.844;9.726;2022-11-23T08:30:36;94812.41;;;4.42;100.00
54038;BME280;39954;48.844;9.726;2022-11-23T08:31:47;94811.00;;;5.00;100.00
54038;BME280;39954;48.844;9.726;2022-11-23T08:32:52;94811.06;;;5.60;100.00
54038;BME280;39954;48.844;9.726;2022-11-23T08:34:02;94808.78;;;6.29;100.00
54038;BME280;39954;48.844;9.726;2022-11-23T08:35:08;94805.34;;;6.99;100.00
54038;BME280;39954;48.844;9.726;2022-11-23T08:36:15;94797.69;;;7.64;100.00
54038;BME280;39954;48.844;9.726;2022-11-23T08:37:19;94801.66;;;8.34;100.00
54038;BME280;39954;48.844;9.726;2022-11-23T08:38:33;94802.16;;;9.14;100.00
54038;BME280;39954;48.844;9.726;2022-11-23T08:39:45;94795.38;;;9.95;100.00
54038;BME280;39954;48.844;9.726;2022-11-23T08:40:57;94788.75;;;10.60;100.00
54038;BME280;39954;48.844;9.726;2022-11-23T08:41:59;94789.72;;;11.13;100.00
54038;BME280;39954;48.844;9.726;2022-11-23T08:43:04;94792.13;;;11.70;100.00
54038;BME280;39954;48.844;9.726;2022-11-23T08:44:10;94787.88;;;12.31;100.00
54038;BME280;39954;48.844;9.726;2022-11-23T08:45:21;94784.56;;;12.91;95.48
54038;BME280;39954;48.844;9.726;2022-11-23T08:46:27;94778.66;;;13.39;78.24
54038;BME280;39954;48.844;9.726;2022-11-23T08:47:33;94785.81;;;13.76;80.10
54038;BME280;39954;48.844;9.726;2022-11-23T08:48:37;94780.41;;;14.16;68.90
54038;BME280;39954;48.844;9.726;2022-11-23T08:49:44;94786.78;;;14.41;71.42
54038;BME280;39954;48.844;9.726;2022-11-23T08:50:53;94779.28;;;14.75;62.00
54038;BME280;39954;48.844;9.726;2022-11-23T08:51:58;94786.63;;;14.90;60.23
54038;BME280;39954;48.844;9.726;2022-11-23T08:53:03;94780.00;;;14.95;59.43
54038;BME280;39954;48.844;9.726;2022-11-23T08:54:15;94786.63;;;15.17;57.75
54038;BME280;39954;48.844;9.726;2022-11-23T08:55:24;94785.03;;;15.07;53.73
54038;BME280;39954;48.844;9.726;2022-11-23T08:56:30;94784.91;;;15.26;53.97
54038;BME280;39954;48.844;9.726;2022-11-23T08:57:36;94787.50;;;15.54;55.14
54038;BME280;39954;48.844;9.726;2022-11-23T08:58:42;94791.28;;;15.69;52.34
54038;BME280;39954;48.844;9.726;2022-11-23T08:59:53;94785.88;;;15.88;52.32
54038;BME280;39954;48.844;9.726;2022-11-23T09:01:06;94776.56;;;16.12;48.66
54038;BME280;39954;48.844;9.726;2022-11-23T09:02:12;94775.81;;;16.46;47.27
54038;BME280;39954;48.844;9.726;2022-11-23T09:03:20;94779.19;;;16.64;48.41
54038;BME280;39954;48.844;9.726;2022-11-23T09:04:30;94772.63;;;16.86;46.94
54038;BME280;39954;48.844;9.726;2022-11-23T09:05:36;94777.06;;;16.94;45.10
54038;BME280;39954;48.844;9.726;2022-11-23T09:06:45;94783.41;;;17.17;45.68
54038;BME280;39954;48.844;9.726;2022-11-23T09:07:53;94774.28;;;17.46;44.04
54038;BME280;39954;48.844;9.726;2022-11-23T09:09:04;94773.81;;;17.59;43.84
54038;BME280;39954;48.844;9.726;2022-11-23T09:10:15;94771.50;;;17.64;42.39
54038;BME280;39954;48.844;9.726;2022-11-23T09:11:21;94776.63;;;17.74;42.96
54038;BME280;39954;48.844;9.726;2022-11-23T09:12:27;94774.47;;;17.77;42.49
54038;BME280;39954;48.844;9.726;2022-11-23T09:13:34;94776.66;;;17.82;42.67
54038;BME280;39954;48.844;9.726;2022-11-23T09:14:44;94773.03;;;17.99;41.30
54038;BME280;39954;48.844;9.726;2022-11-23T09:16:01;94772.22;;;18.23;40.50
54038;BME280;39954;48.844;9.726;2022-11-23T09:17:11;94770.41;;;18.07;41.14
54038;BME280;39954;48.844;9.726;2022-11-23T09:18:28;94775.56;;;17.42;41.84
54038;BME280;39954;48.844;9.726;2022-11-23T09:19:40;94768.13;;;17.96;40.55
54038;BME280;39954;48.844;9.726;2022-11-23T09:20:52;94773.03;;;18.32;40.83
54038;BME280;39954;48.844;9.726;2022-11-23T09:21:58;94771.31;;;18.64;39.89
54038;BME280;39954;48.844;9.726;2022-11-23T09:23:02;94771.31;;;18.64;39.58
54038;BME280;39954;48.844;9.726;2022-11-23T09:24:16;94770.97;;;18.67;39.19
54038;BME280;39954;48.844;9.726;2022-11-23T09:25:25;94773.03;;;17.83;39.42
54038;BME280;39954;48.844;9.726;2022-11-23T09:26:32;94788.75;;;15.77;41.88